Pagrindinis puslapis
METAR-TAF:

METAR-TAF

Oro uostai :

Vojens, Danija

platuma: 55-14N, ilguma: 009-16E, Aukštis: 43 m

Dabartinis oras

Ataskaita buvo paskelbta 28 minutes, ne 13:50 UTC
Vėjas 8 kt iš Vakarų
Temperatūra 10°C
Drėgmė 62%
Slėgis 1024 hPa
Matomumas 10 km arba daugiau
Mažai debesys ne aukštis 3000 ft
Išsisklaidę debesys ne aukštis 4600 ft
Su prošvaistėmis ne aukštis 25000 ft

METAR: EKSP 231350Z 28008KT 9999 FEW030 SCT046 BKN250 10/03 Q1024

Laikas: 16:18 (14:18 UTC)

Prognozė

Ataskaita buvo paskelbta 3 valandos ir 7 minutes, ne 11:11 UTC
Prognozė galioja nuo 23 metu 12 UTC su 24 metu 12 UTC
Vėjas 10 kt iš Vakarų
Matomumas 10 km arba daugiau
Išsisklaidę debesys ne aukštis 3000 ft
Su prošvaistėmis ne aukštis 20000 ft
Tapsmas
nuo 23 metu 16 UTC su 23 metu 19 UTC
Vėjas 10 kt iš Pietų
Laikinai
nuo 24 metu 00 UTC su 24 metu 05 UTC
Matomumas: 4000 m
Su prošvaistėmis ne aukštis 1200 ft
lietus, dulksna, rūkana

TAF: EKSP 231111Z 2312/2412 28010KT 9999 SCT030 BKN200 BECMG 2316/2319 18010KT TEMPO 2400/2405 4000 -RADZ BR BKN012

Orai ataskaitas ir orų prognozės (METAR, TAF).

turimą stotys yra geltonos ir raudonos taškus žemėlapyje.

Perkelti pele per norėdami pamatyti stoties vardą.

Tada spustelėkite, norėdami matyti oro stebėjimo ir prognozės.

Norėdami pakeisti žemėlapį: spustelėkite ant žalios mygtukų su juodo kryžiaus žemyn,; žalią mygtuką su brūkšneliu, jei norite nutolinti; arba žalių rodyklių gretimoms žemėlapius.


METAR-TAF: